Time;durP1;ratioP1;P1;durP2;ratioP2;P2;SDS_P1;SDS_P2;PMS_P1;PMS_P2;Temp;Humidity;BMP_temperature;BMP_pressure;BME280_temperature;BME280_humidity;BME280_pressure;Samples;Min_cycle;Max_cycle;Signal;HPM_P1;HPM_P2
2022/07/19 00:01:41;;;;;;;12.40;7.40;;;21.30;99.90;;;;;;5081395;28;20382;-54
2022/07/19 00:04:07;;;;;;;11.30;7.33;;;21.30;99.90;;;;;;5079086;28;20419;-54
2022/07/19 00:06:33;;;;;;;10.93;7.20;;;21.30;99.90;;;;;;5079219;28;20374;-53
2022/07/19 00:08:59;;;;;;;13.23;6.80;;;21.30;99.90;;;;;;5080589;28;20404;-56
2022/07/19 00:11:25;;;;;;;10.98;7.60;;;21.30;99.90;;;;;;5079598;28;20387;-54
2022/07/19 00:13:50;;;;;;;15.30;6.90;;;21.30;99.90;;;;;;5081932;28;20391;-55
2022/07/19 00:16:16;;;;;;;12.50;7.05;;;21.30;99.90;;;;;;5079564;28;20418;-60
2022/07/19 00:18:42;;;;;;;10.48;7.10;;;21.20;99.90;;;;;;5081628;28;20391;-54
2022/07/19 00:21:08;;;;;;;13.13;7.55;;;21.10;99.90;;;;;;5080573;28;20378;-53
2022/07/19 00:23:34;;;;;;;11.93;7.60;;;21.00;99.90;;;;;;5084577;28;20455;-53
2022/07/19 00:26:01;;;;;;;12.60;8.07;;;20.80;99.90;;;;;;5091236;28;20770;-54
2022/07/19 00:28:27;;;;;;;10.48;6.13;;;20.70;99.90;;;;;;5090147;28;20433;-54
2022/07/19 00:30:53;;;;;;;11.50;6.30;;;20.70;99.90;;;;;;5090245;28;20804;-54
2022/07/19 00:33:18;;;;;;;11.43;7.32;;;20.70;99.90;;;;;;5070431;28;20741;-60
2022/07/19 00:35:44;;;;;;;12.20;7.20;;;20.50;99.90;;;;;;5070394;28;20706;-53
2022/07/19 00:38:13;;;;;;;11.57;6.47;;;20.50;99.90;;;;;;5090120;28;20392;-54
2022/07/19 00:40:43;;;;;;;13.82;5.63;;;20.50;99.90;;;;;;5090269;28;20373;-54
2022/07/19 00:43:10;;;;;;;10.77;5.95;;;20.40;99.90;;;;;;5079308;28;20894;-54
2022/07/19 00:45:36;;;;;;;11.60;7.10;;;20.30;99.90;;;;;;5069712;28;20414;-54
2022/07/19 00:48:03;;;;;;;11.35;6.70;;;20.30;99.90;;;;;;5089023;28;20773;-54
2022/07/19 00:50:29;;;;;;;11.55;7.00;;;20.30;99.90;;;;;;5090007;28;20394;-54
2022/07/19 00:53:04;;;;;;;11.98;5.97;;;20.30;99.90;;;;;;5072175;28;20392;-54
2022/07/19 00:55:32;;;;;;;11.00;5.80;;;20.20;99.90;;;;;;5069652;28;20386;-56
2022/07/19 00:57:59;;;;;;;10.80;5.80;;;20.10;99.90;;;;;;5088592;28;20862;-54
2022/07/19 01:00:26;;;;;;;15.52;6.20;;;20.00;99.90;;;;;;5088260;28;20394;-54
2022/07/19 01:02:52;;;;;;;10.50;5.60;;;19.90;99.90;;;;;;5090535;28;20378;-54
2022/07/19 01:05:19;;;;;;;11.00;5.90;;;19.80;99.90;;;;;;5070394;28;20454;-58
2022/07/19 01:07:44;;;;;;;12.95;5.60;;;19.20;99.90;;;;;;5086085;28;20394;-54
2022/07/19 01:10:13;;;;;;;9.63;6.07;;;19.70;99.90;;;;;;5090270;28;20382;-55
2022/07/19 01:12:39;;;;;;;12.13;6.53;;;19.70;99.90;;;;;;5073527;28;20439;-54
2022/07/19 01:15:16;;;;;;;12.05;5.72;;;19.80;99.90;;;;;;5070222;28;20376;-54
2022/07/19 01:17:42;;;;;;;13.30;6.88;;;19.80;99.90;;;;;;5080136;28;20802;-54
2022/07/19 01:20:08;;;;;;;10.13;5.90;;;19.90;99.90;;;;;;5069997;28;20388;-54
2022/07/19 01:22:34;;;;;;;12.02;6.05;;;19.90;99.90;;;;;;5069084;28;20401;-54
2022/07/19 01:25:00;;;;;;;11.87;6.67;;;19.90;99.90;;;;;;5069568;28;20416;-55
2022/07/19 01:27:25;;;;;;;13.10;6.25;;;19.90;99.90;;;;;;5069243;28;20468;-54
2022/07/19 01:29:51;;;;;;;15.77;6.85;;;19.90;99.90;;;;;;5069955;28;20445;-54
2022/07/19 01:32:17;;;;;;;19.67;7.07;;;19.90;99.90;;;;;;5088707;28;20930;-54
2022/07/19 01:34:42;;;;;;;14.20;6.80;;;20.00;99.90;;;;;;5084534;28;20398;-54
2022/07/19 01:37:08;;;;;;;11.30;6.30;;;19.80;99.90;;;;;;5088221;28;20402;-54
2022/07/19 01:39:33;;;;;;;13.47;7.20;;;19.70;99.90;;;;;;5070176;28;20384;-54
2022/07/19 01:41:59;;;;;;;12.50;6.80;;;19.60;99.90;;;;;;5082828;28;20736;-54
2022/07/19 01:44:25;;;;;;;12.25;6.57;;;19.70;99.90;;;;;;5068630;28;20412;-54
2022/07/19 01:46:50;;;;;;;11.55;6.82;;;19.60;99.90;;;;;;5086641;28;20417;-54
2022/07/19 01:49:16;;;;;;;12.93;6.20;;;19.60;99.90;;;;;;5080244;28;20396;-54
2022/07/19 01:51:41;;;;;;;14.77;7.03;;;19.60;99.90;;;;;;5069389;28;20407;-54
2022/07/19 01:54:07;;;;;;;11.63;6.10;;;19.60;99.90;;;;;;5089860;28;20762;-54
2022/07/19 01:56:33;;;;;;;11.60;5.97;;;19.50;99.90;;;;;;5074328;28;20403;-54
2022/07/19 01:58:58;;;;;;;16.13;6.93;;;19.50;99.90;;;;;;5073855;28;20398;-54
2022/07/19 02:01:24;;;;;;;13.30;5.93;;;19.50;99.90;;;;;;5088876;28;20381;-54
2022/07/19 02:03:49;;;;;;;10.18;5.82;;;19.40;99.90;;;;;;5076509;28;20411;-54
2022/07/19 02:06:15;;;;;;;10.90;5.65;;;19.30;99.90;;;;;;5074882;28;20397;-54
2022/07/19 02:08:41;;;;;;;10.07;5.88;;;19.00;99.90;;;;;;5088884;28;21092;-56
2022/07/19 02:13:51;;;;;;;11.82;6.88;;;18.90;99.90;;;;;;5080349;28;20447;-54
2022/07/19 02:16:17;;;;;;;10.60;6.57;;;18.80;99.90;;;;;;5087949;28;20481;-54
2022/07/19 02:18:42;;;;;;;11.50;6.90;;;18.80;99.90;;;;;;5068631;28;20703;-55
2022/07/19 02:21:08;;;;;;;10.73;5.97;;;18.90;99.90;;;;;;5081304;28;20448;-54
2022/07/19 02:23:34;;;;;;;11.13;6.60;;;19.00;99.90;;;;;;5088249;28;20477;-54
2022/07/19 02:25:59;;;;;;;11.15;6.40;;;19.00;99.90;;;;;;5089750;28;20370;-53
2022/07/19 02:28:25;;;;;;;13.95;6.30;;;18.90;99.90;;;;;;5080210;28;20807;-54
2022/07/19 02:30:50;;;;;;;10.90;6.80;;;18.90;99.90;;;;;;5076659;28;20461;-54
2022/07/19 02:33:16;;;;;;;12.93;6.50;;;18.90;99.90;;;;;;5073320;28;20868;-54
2022/07/19 02:35:41;;;;;;;13.30;6.80;;;18.80;99.90;;;;;;5074760;28;20383;-54
2022/07/19 02:38:07;;;;;;;13.43;6.67;;;18.80;99.90;;;;;;5093397;28;20922;-53
2022/07/19 02:40:33;;;;;;;14.20;6.33;;;18.80;99.90;;;;;;5090996;28;20382;-53
2022/07/19 02:42:58;;;;;;;14.75;6.85;;;18.80;99.90;;;;;;5072849;28;20396;-53
2022/07/19 02:45:24;;;;;;;11.27;6.35;;;18.80;99.90;;;;;;5074244;28;20423;-54
2022/07/19 02:47:49;;;;;;;12.90;6.90;;;18.70;99.90;;;;;;5073099;28;20458;-54
2022/07/19 02:50:15;;;;;;;13.00;7.07;;;18.70;99.90;;;;;;5080103;28;20463;-54
2022/07/19 02:52:41;;;;;;;12.00;6.87;;;18.70;1.00;;;;;;5092166;28;20374;-54
2022/07/19 02:55:07;;;;;;;14.77;6.93;;;18.70;99.90;;;;;;5086797;28;20415;-54
2022/07/19 02:57:32;;;;;;;11.55;6.78;;;18.60;99.90;;;;;;5071578;28;20426;-53
2022/07/19 02:59:58;;;;;;;12.80;6.20;;;18.70;99.90;;;;;;5083058;28;20429;-54
2022/07/19 03:02:23;;;;;;;13.80;6.70;;;18.70;99.90;;;;;;5071864;28;20380;-59
2022/07/19 03:04:49;;;;;;;13.48;6.38;;;18.70;99.90;;;;;;5082636;28;20402;-54
2022/07/19 03:07:15;;;;;;;11.90;6.30;;;18.70;99.90;;;;;;5082361;28;20395;-54
2022/07/19 03:09:41;;;;;;;14.73;6.53;;;18.70;99.90;;;;;;5071842;28;20384;-54
2022/07/19 03:12:07;;;;;;;11.80;6.30;;;18.70;99.90;;;;;;5081062;28;20432;-53
2022/07/19 03:14:33;;;;;;;12.35;6.55;;;18.60;99.90;;;;;;5091925;28;20386;-54
2022/07/19 03:16:58;;;;;;;11.80;7.00;;;18.70;99.90;;;;;;5090907;28;20389;-54
2022/07/19 03:19:27;;;;;;;12.30;6.47;;;18.60;99.90;;;;;;5091613;28;20785;-59
2022/07/19 03:21:53;;;;;;;9.93;6.30;;;18.60;99.90;;;;;;5085414;28;20442;-54
2022/07/19 03:24:19;;;;;;;11.20;6.55;;;18.60;99.90;;;;;;5078744;28;20490;-53
2022/07/19 03:26:45;;;;;;;10.93;6.45;;;18.60;99.90;;;;;;5078284;28;20432;-53
2022/07/19 03:29:10;;;;;;;11.40;6.65;;;18.60;99.90;;;;;;5092285;28;20481;-53
2022/07/19 03:31:37;;;;;;;11.10;6.20;;;18.60;99.90;;;;;;5085525;28;20387;-53
2022/07/19 03:34:02;;;;;;;11.85;6.50;;;18.60;99.90;;;;;;5091885;28;20743;-53
2022/07/19 03:36:28;;;;;;;10.10;6.60;;;18.60;99.90;;;;;;5083126;28;20389;-54
2022/07/19 03:38:53;;;;;;;11.40;7.03;;;18.50;99.90;;;;;;5086558;28;20421;-54
2022/07/19 03:41:19;;;;;;;10.10;6.40;;;18.50;99.90;;;;;;5073588;28;20388;-53
2022/07/19 03:43:45;;;;;;;14.23;7.28;;;18.50;1.00;;;;;;5071092;28;20488;-54
2022/07/19 03:46:10;;;;;;;16.17;6.23;;;18.40;1.00;;;;;;5073494;28;20433;-54
2022/07/19 03:48:36;;;;;;;11.73;6.70;;;18.40;1.00;;;;;;5079797;28;20390;-54
2022/07/19 03:51:02;;;;;;;11.97;6.80;;;18.30;1.00;;;;;;5082599;28;20391;-54
2022/07/19 03:53:28;;;;;;;11.55;6.80;;;18.40;1.00;;;;;;5083839;28;20390;-54
2022/07/19 03:55:53;;;;;;;10.70;6.20;;;18.40;1.00;;;;;;5091731;28;20840;-53
2022/07/19 03:58:19;;;;;;;10.17;6.33;;;18.30;1.00;;;;;;5079170;28;20395;-54
2022/07/19 04:00:45;;;;;;;16.27;7.25;;;18.30;1.00;;;;;;5086743;28;20386;-52
2022/07/19 04:03:11;;;;;;;12.40;6.60;;;18.30;1.00;;;;;;5080106;28;20395;-52
2022/07/19 04:05:37;;;;;;;11.60;7.28;;;18.50;1.00;;;;;;5071895;28;20481;-52
2022/07/19 04:08:03;;;;;;;13.63;6.90;;;18.50;1.00;;;;;;5085478;28;20390;-52
2022/07/19 04:10:29;;;;;;;15.63;7.97;;;18.60;1.00;;;;;;5071302;28;20935;-52
2022/07/19 04:12:54;;;;;;;12.60;6.95;;;18.50;1.00;;;;;;5081924;28;20409;-52
2022/07/19 04:15:20;;;;;;;15.73;7.10;;;18.50;1.00;;;;;;5091466;28;20474;-52
2022/07/19 04:17:46;;;;;;;15.70;7.53;;;18.50;1.00;;;;;;5089631;28;20515;-54
2022/07/19 04:20:12;;;;;;;12.40;7.40;;;18.60;1.00;;;;;;5086848;28;20433;-52
2022/07/19 04:22:38;;;;;;;11.73;7.10;;;18.60;1.00;;;;;;5079820;28;20528;-53
2022/07/19 04:25:04;;;;;;;12.40;7.20;;;18.60;1.00;;;;;;5081481;28;20912;-52
2022/07/19 04:27:30;;;;;;;13.20;6.73;;;18.70;1.00;;;;;;5080437;28;20500;-52
2022/07/19 04:29:56;;;;;;;13.40;6.43;;;18.60;1.00;;;;;;5080485;28;20391;-52
2022/07/19 04:32:22;;;;;;;11.93;6.57;;;18.60;1.00;;;;;;5078307;28;20399;-61
2022/07/19 04:34:49;;;;;;;13.97;7.30;;;18.60;1.00;;;;;;5074347;28;20399;-55
2022/07/19 04:37:15;;;;;;;11.23;7.10;;;18.60;1.00;;;;;;5077131;28;20924;-56
2022/07/19 04:39:41;;;;;;;13.73;7.95;;;18.50;99.90;;;;;;5070352;28;20396;-56
2022/07/19 04:42:06;;;;;;;13.65;8.38;;;18.60;99.90;;;;;;5070287;28;20395;-55
2022/07/19 04:44:32;;;;;;;15.70;8.43;;;18.70;99.90;;;;;;5069570;28;20411;-56
2022/07/19 04:46:58;;;;;;;16.83;8.17;;;18.90;71.10;;;;;;5070689;28;20384;-55
2022/07/19 04:49:23;;;;;;;13.63;7.90;;;19.10;1.00;;;;;;5069991;28;20379;-58
2022/07/19 04:51:49;;;;;;;13.20;7.07;;;19.40;1.00;;;;;;5069803;28;20380;-55
2022/07/19 04:54:15;;;;;;;16.08;8.25;;;19.50;1.00;;;;;;5070464;28;20729;-56
2022/07/19 04:56:41;;;;;;;13.43;7.68;;;19.60;1.00;;;;;;5069825;28;20400;-55
2022/07/19 04:59:06;;;;;;;15.87;8.10;;;19.60;1.00;;;;;;5070443;28;20387;-56
2022/07/19 05:01:32;;;;;;;16.33;7.80;;;19.80;1.00;;;;;;5069480;28;20388;-55
2022/07/19 05:03:58;;;;;;;15.30;7.70;;;20.30;1.00;;;;;;5070278;28;20892;-56
2022/07/19 05:06:24;;;;;;;13.48;7.25;;;21.30;99.90;;;;;;5069623;28;20383;-59
2022/07/19 05:08:52;;;;;;;12.55;7.00;;;23.20;99.90;;;;;;5070140;28;20380;-56
2022/07/19 05:11:18;;;;;;;13.25;7.43;;;24.60;99.90;;;;;;5070398;28;20383;-56
2022/07/19 05:13:44;;;;;;;13.33;6.60;;;26.20;99.90;;;;;;5069774;28;20395;-56
2022/07/19 05:16:09;;;;;;;12.90;6.80;;;27.70;99.90;;;;;;5070162;28;20371;-56
2022/07/19 05:18:35;;;;;;;14.40;7.80;;;28.40;99.90;;;;;;5069352;28;20384;-56
2022/07/19 05:21:01;;;;;;;14.60;8.53;;;29.00;99.90;;;;;;5070084;28;20721;-56
2022/07/19 05:23:26;;;;;;;15.15;7.70;;;29.50;99.90;;;;;;5069315;28;20833;-59
2022/07/19 05:25:52;;;;;;;13.55;7.97;;;29.70;99.90;;;;;;5070034;28;20853;-56
2022/07/19 05:28:17;;;;;;;13.30;8.85;;;30.30;99.90;;;;;;5070001;28;20884;-57
2022/07/19 05:30:43;;;;;;;12.50;7.87;;;30.80;99.90;;;;;;5069633;28;20441;-56
2022/07/19 05:33:09;;;;;;;13.50;8.37;;;31.50;99.90;;;;;;5070054;28;20392;-57
2022/07/19 05:35:35;;;;;;;13.27;7.88;;;32.10;99.90;;;;;;5069238;28;20428;-55
2022/07/19 05:38:00;;;;;;;13.55;8.30;;;32.40;99.90;;;;;;5070207;28;20379;-55
2022/07/19 05:40:26;;;;;;;15.07;8.10;;;32.50;99.90;;;;;;5068779;28;20541;-58
2022/07/19 05:42:51;;;;;;;12.50;8.25;;;32.50;99.90;;;;;;5069832;28;20376;-55
2022/07/19 05:45:17;;;;;;;14.40;7.80;;;32.70;99.90;;;;;;5069462;28;20419;-55
2022/07/19 05:47:43;;;;;;;15.03;8.23;;;33.60;99.90;;;;;;5068936;28;20442;-55
2022/07/19 05:50:09;;;;;;;15.70;8.25;;;33.30;99.90;;;;;;5069749;28;20380;-55
2022/07/19 05:52:34;;;;;;;13.77;8.80;;;33.60;99.90;;;;;;5069329;28;20429;-55
2022/07/19 05:55:00;;;;;;;16.23;8.93;;;33.60;99.90;;;;;;5069784;28;20437;-57
2022/07/19 05:57:26;;;;;;;16.33;8.52;;;33.90;99.90;;;;;;5068925;28;20441;-60
2022/07/19 05:59:53;;;;;;;14.03;7.90;;;34.30;99.90;;;;;;5069558;28;20383;-57
2022/07/19 06:02:19;;;;;;;10.55;8.25;;;34.80;99.90;;;;;;5068853;28;20379;-57
2022/07/19 06:04:45;;;;;;;9.98;5.40;;;35.70;99.90;;;;;;5077624;28;20479;-58
2022/07/19 06:07:10;;;;;;;10.40;5.45;;;35.60;99.90;;;;;;5079097;28;20929;-57
2022/07/19 06:09:36;;;;;;;9.15;4.90;;;35.70;99.90;;;;;;5081996;28;20575;-57
2022/07/19 06:12:02;;;;;;;9.23;4.50;;;35.60;99.90;;;;;;5069434;28;20380;-57
2022/07/19 06:14:27;;;;;;;9.02;4.93;;;36.30;99.90;;;;;;5080624;28;20405;-60
2022/07/19 06:16:53;;;;;;;8.50;4.40;;;36.70;99.90;;;;;;5089703;28;20422;-57
2022/07/19 06:19:19;;;;;;;10.02;5.00;;;36.10;99.90;;;;;;5089514;28;20751;-57
2022/07/19 06:21:45;;;;;;;10.50;4.53;;;35.10;99.90;;;;;;5087140;28;20377;-57
2022/07/19 06:24:11;;;;;;;8.85;4.35;;;35.40;99.90;;;;;;5069475;28;20951;-57
2022/07/19 06:26:37;;;;;;;11.10;5.18;;;36.00;99.90;;;;;;5068207;28;20495;-57
2022/07/19 06:29:02;;;;;;;9.07;5.53;;;36.70;99.90;;;;;;5069170;28;20463;-57
2022/07/19 06:31:28;;;;;;;11.35;7.05;;;37.00;99.90;;;;;;5068257;28;20780;-58
2022/07/19 06:33:54;;;;;;;9.82;6.50;;;37.60;99.90;;;;;;5069520;28;20384;-57
2022/07/19 06:36:20;;;;;;;10.63;8.27;;;38.00;99.90;;;;;;5069279;28;20673;-57
2022/07/19 06:38:47;;;;;;;13.52;8.10;;;38.20;99.90;;;;;;5069394;28;20373;-57
2022/07/19 06:41:13;;;;;;;9.55;6.10;;;38.40;99.90;;;;;;5089307;28;20401;-57
2022/07/19 06:43:39;;;;;;;8.38;4.40;;;38.10;99.90;;;;;;5088663;28;20992;-57
2022/07/19 06:46:05;;;;;;;7.43;4.13;;;37.70;99.90;;;;;;5089301;28;20381;-57
2022/07/19 06:48:31;;;;;;;9.40;8.20;;;37.70;99.90;;;;;;5088642;28;20370;-57
2022/07/19 06:50:57;;;;;;;11.37;8.27;;;38.50;99.90;;;;;;5088867;28;20378;-57
2022/07/19 06:53:22;;;;;;;9.23;7.40;;;38.60;99.90;;;;;;5089317;28;20384;-57
2022/07/19 06:55:48;;;;;;;12.17;8.10;;;38.40;99.90;;;;;;5088212;28;20695;-57
2022/07/19 06:58:14;;;;;;;10.40;7.47;;;38.30;99.90;;;;;;5089562;28;20771;-57
2022/07/19 07:00:40;;;;;;;9.53;6.40;;;38.10;99.90;;;;;;5088412;28;20386;-57
2022/07/19 07:03:05;;;;;;;8.93;6.30;;;38.70;99.90;;;;;;5089000;28;20839;-58
2022/07/19 07:05:31;;;;;;;9.23;7.40;;;38.50;99.90;;;;;;5088064;28;20417;-57
2022/07/19 07:07:57;;;;;;;9.77;6.50;;;37.60;99.90;;;;;;5089025;28;20382;-57
2022/07/19 07:10:23;;;;;;;11.60;7.93;;;38.30;99.90;;;;;;5089203;28;20370;-57
2022/07/19 07:12:49;;;;;;;8.80;7.47;;;38.90;99.90;;;;;;5089207;28;20407;-57
2022/07/19 07:15:15;;;;;;;8.27;7.37;;;38.70;99.90;;;;;;5072448;28;20482;-58
2022/07/19 07:17:40;;;;;;;10.85;4.22;;;39.30;99.90;;;;;;5071787;28;20832;-57
2022/07/19 07:20:07;;;;;;;8.27;4.38;;;39.50;99.90;;;;;;5072155;28;20380;-57
2022/07/19 07:22:34;;;;;;;9.52;5.10;;;39.60;99.90;;;;;;5071592;28;20376;-58
2022/07/19 07:25:00;;;;;;;8.10;4.60;;;39.90;99.90;;;;;;5072324;28;20437;-57
2022/07/19 07:27:26;;;;;;;8.50;5.53;;;40.10;99.90;;;;;;5071673;28;20426;-61
2022/07/19 07:29:51;;;;;;;10.18;5.53;;;40.40;99.90;;;;;;5071990;28;20398;-57
2022/07/19 07:32:18;;;;;;;8.53;3.90;;;41.40;99.90;;;;;;5072330;28;20467;-58
2022/07/19 07:34:45;;;;;;;7.82;4.30;;;41.90;99.90;;;;;;5071198;28;20746;-58
2022/07/19 07:37:10;;;;;;;7.43;3.80;;;42.20;99.90;;;;;;5071809;28;20748;-57
2022/07/19 07:39:36;;;;;;;7.40;3.70;;;42.30;99.90;;;;;;5071515;28;20371;-57
2022/07/19 07:42:03;;;;;;;10.25;7.93;;;42.90;99.90;;;;;;5072012;28;20395;-58
2022/07/19 07:44:29;;;;;;;12.32;10.88;;;43.20;99.90;;;;;;5071246;28;20485;-58
2022/07/19 07:46:55;;;;;;;8.43;6.88;;;43.20;99.90;;;;;;5071716;28;20849;-59
2022/07/19 07:49:21;;;;;;;8.43;4.33;;;42.80;99.90;;;;;;5071784;28;20388;-58
2022/07/19 07:51:46;;;;;;;13.68;7.35;;;43.00;99.90;;;;;;5070727;28;21099;-58
2022/07/19 07:54:12;;;;;;;8.07;4.23;;;42.70;99.90;;;;;;5071698;28;20387;-57
2022/07/19 07:56:38;;;;;;;10.02;4.07;;;43.00;99.90;;;;;;5070868;28;20392;-57
2022/07/19 07:59:04;;;;;;;25.13;21.90;;;43.50;99.90;;;;;;5071317;28;20947;-58
2022/07/19 08:01:30;;;;;;;39.35;31.10;;;43.20;99.90;;;;;;5070789;28;20388;-59
2022/07/19 08:03:56;;;;;;;30.38;23.42;;;43.10;99.90;;;;;;5071456;28;20481;-57
2022/07/19 08:06:22;;;;;;;18.50;15.05;;;43.70;99.90;;;;;;5071498;28;20372;-58
2022/07/19 08:08:47;;;;;;;17.20;14.47;;;44.00;99.90;;;;;;5070786;28;20379;-57
2022/07/19 08:11:13;;;;;;;10.70;7.60;;;43.70;99.90;;;;;;5071541;28;20380;-57
2022/07/19 08:13:39;;;;;;;11.13;6.73;;;43.20;99.90;;;;;;5077957;28;20386;-57
2022/07/19 08:16:06;;;;;;;10.57;5.90;;;43.90;99.90;;;;;;5091731;28;20378;-57
2022/07/19 08:18:31;;;;;;;8.40;4.32;;;45.00;99.90;;;;;;5090746;28;20374;-58
2022/07/19 08:20:57;;;;;;;7.10;3.60;;;45.10;99.90;;;;;;5091518;28;20846;-57
2022/07/19 08:23:23;;;;;;;9.23;3.73;;;44.90;99.90;;;;;;5091276;28;20457;-57
2022/07/19 08:25:48;;;;;;;11.35;3.90;;;45.70;99.90;;;;;;5090161;28;20850;-57
2022/07/19 08:28:14;;;;;;;10.13;3.70;;;45.50;99.90;;;;;;5090749;28;20469;-57
2022/07/19 08:30:40;;;;;;;8.53;3.90;;;45.00;99.90;;;;;;5090694;28;20401;-57
2022/07/19 08:33:08;;;;;;;6.47;3.03;;;45.60;99.90;;;;;;5090995;28;20378;-57
2022/07/19 08:35:34;;;;;;;6.60;3.00;;;45.90;99.90;;;;;;5090522;28;20810;-57
2022/07/19 08:38:00;;;;;;;7.40;3.10;;;46.00;99.90;;;;;;5091088;28;20366;-57
2022/07/19 08:40:25;;;;;;;6.47;3.37;;;45.80;99.90;;;;;;5091161;28;20389;-57
2022/07/19 08:42:53;;;;;;;6.75;2.80;;;45.30;99.90;;;;;;5090501;28;20856;-57
2022/07/19 08:45:22;;;;;;;7.90;3.80;;;45.10;99.90;;;;;;5091061;28;20429;-57
2022/07/19 08:47:49;;;;;;;7.40;3.10;;;45.60;99.90;;;;;;5090153;28;20559;-58
2022/07/19 08:50:14;;;;;;;8.00;5.30;;;45.70;99.90;;;;;;5090735;28;20477;-57
2022/07/19 08:52:41;;;;;;;6.70;3.20;;;45.30;99.90;;;;;;5090250;28;20523;-57
2022/07/19 08:55:09;;;;;;;6.03;2.70;;;45.30;99.90;;;;;;5090637;28;20405;-57
2022/07/19 09:00:20;;;;;;;7.40;3.08;;;45.60;99.90;;;;;;5090634;28;20397;-57
2022/07/19 09:03:00;;;;;;;7.00;3.08;;;46.00;99.90;;;;;;5089935;28;20839;-58
2022/07/19 09:05:26;;;;;;;10.02;3.80;;;46.00;99.90;;;;;;5090556;28;20417;-58
2022/07/19 09:08:13;;;;;;;7.53;3.70;;;45.30;99.90;;;;;;5089862;28;20405;-57
2022/07/19 09:10:41;;;;;;;7.10;5.70;;;44.80;99.90;;;;;;5089758;28;20393;-57
2022/07/19 09:13:10;;;;;;;9.90;5.70;;;44.60;99.90;;;;;;5087293;28;20479;-57
2022/07/19 09:15:37;;;;;;;9.40;6.10;;;45.20;99.90;;;;;;5069380;28;20390;-58
2022/07/19 09:18:08;;;;;;;7.23;3.83;;;44.80;99.90;;;;;;5069968;28;20436;-57
2022/07/19 09:20:34;;;;;;;7.07;3.20;;;43.60;99.90;;;;;;5069151;28;20379;-58
2022/07/19 09:23:01;;;;;;;8.63;3.00;;;44.40;99.90;;;;;;5069835;28;20782;-58
2022/07/19 09:25:41;;;;;;;7.40;2.33;;;44.60;99.90;;;;;;5069662;28;20465;-60
2022/07/19 09:28:07;;;;;;;6.93;2.70;;;44.40;99.90;;;;;;5069230;28;20772;-57
2022/07/19 09:30:37;;;;;;;7.17;2.40;;;43.30;99.90;;;;;;5069210;28;20387;-58
2022/07/19 09:33:17;;;;;;;7.43;3.13;;;43.30;99.90;;;;;;5069779;28;20395;-58
2022/07/19 09:35:49;;;;;;;7.63;6.50;;;43.70;99.90;;;;;;5067954;28;20455;-58
2022/07/19 09:38:22;;;;;;;8.75;5.88;;;42.90;99.90;;;;;;5069661;28;20391;-58
2022/07/19 09:40:53;;;;;;;7.95;5.40;;;42.90;99.90;;;;;;5068829;28;20458;-57
2022/07/19 09:43:22;;;;;;;7.57;6.57;;;43.40;99.90;;;;;;5069628;28;20463;-58
2022/07/19 09:45:48;;;;;;;8.48;6.78;;;43.60;99.90;;;;;;5069139;28;20550;-58
2022/07/19 09:48:14;;;;;;;9.57;6.70;;;43.10;99.90;;;;;;5069478;28;20864;-58
2022/07/19 09:50:40;;;;;;;8.20;6.13;;;43.50;99.90;;;;;;5068669;28;20412;-58
2022/07/19 09:53:06;;;;;;;8.18;6.10;;;43.70;99.90;;;;;;5069522;28;20391;-58
2022/07/19 09:55:32;;;;;;;8.15;7.15;;;43.50;99.90;;;;;;5068565;28;20386;-59
2022/07/19 09:58:01;;;;;;;8.23;6.50;;;43.00;99.90;;;;;;5068979;28;20387;-58
2022/07/19 10:00:27;;;;;;;8.30;6.68;;;42.70;99.90;;;;;;5069582;28;20478;-58
2022/07/19 10:03:00;;;;;;;8.50;7.50;;;41.90;99.90;;;;;;5068538;28;20403;-57
2022/07/19 10:05:27;;;;;;;8.73;7.60;;;41.10;99.90;;;;;;5069313;28;20906;-57
2022/07/19 10:07:54;;;;;;;9.30;7.60;;;41.20;99.90;;;;;;5068790;28;20453;-57
2022/07/19 10:10:22;;;;;;;7.75;6.60;;;41.60;99.90;;;;;;5069302;28;20429;-58
2022/07/19 10:12:50;;;;;;;8.65;6.93;;;41.80;99.90;;;;;;5068593;28;20380;-58
2022/07/19 10:15:18;;;;;;;9.00;6.60;;;42.40;99.90;;;;;;5089512;28;20386;-58
2022/07/19 10:18:11;;;;;;;9.00;5.90;;;42.60;99.90;;;;;;5088727;28;20374;-58
2022/07/19 10:20:38;;;;;;;7.27;5.50;;;42.00;99.90;;;;;;5089169;28;20381;-58
2022/07/19 10:23:04;;;;;;;10.50;6.28;;;41.80;99.90;;;;;;5089449;28;20386;-58
2022/07/19 10:25:43;;;;;;;11.10;5.80;;;42.10;99.90;;;;;;5088850;28;20887;-60
2022/07/19 10:28:37;;;;;;;11.50;6.47;;;42.70;99.90;;;;;;5089177;28;20410;-57
2022/07/19 10:31:22;;;;;;;8.75;5.80;;;42.90;99.90;;;;;;5075636;28;20425;-58
2022/07/19 10:34:24;;;;;;;8.48;6.93;;;43.20;99.90;;;;;;5083387;28;20567;-57
2022/07/19 10:36:51;;;;;;;10.18;5.80;;;42.40;99.90;;;;;;5075125;28;20391;-57
2022/07/19 10:39:23;;;;;;;8.10;6.10;;;41.00;99.90;;;;;;5069081;28;20852;-57
2022/07/19 10:42:13;;;;;;;8.83;6.93;;;40.40;99.90;;;;;;5068160;28;20475;-56
2022/07/19 10:44:57;;;;;;;9.80;7.90;;;39.70;99.90;;;;;;5080754;28;20419;-57
2022/07/19 10:47:32;;;;;;;7.80;6.60;;;39.10;99.90;;;;;;5084804;28;20377;-57
2022/07/19 10:50:05;;;;;;;8.00;7.20;;;38.80;99.90;;;;;;5091074;28;20378;-57
2022/07/19 10:52:38;;;;;;;7.97;6.43;;;38.10;99.90;;;;;;5078501;28;20433;-60
2022/07/19 10:55:25;;;;;;;9.40;7.13;;;37.70;99.90;;;;;;5083885;28;20436;-58
2022/07/19 10:58:08;;;;;;;9.20;7.50;;;37.40;99.90;;;;;;5092241;28;20438;-57
2022/07/19 11:00:47;;;;;;;10.35;7.10;;;36.80;99.90;;;;;;5087373;28;20394;-57
2022/07/19 11:03:22;;;;;;;9.40;6.50;;;36.90;99.90;;;;;;5086197;28;20425;-57
2022/07/19 11:05:53;;;;;;;9.70;7.60;;;36.80;99.90;;;;;;5091293;28;20439;-57
2022/07/19 11:08:33;;;;;;;10.50;6.40;;;36.90;99.90;;;;;;5092380;28;20557;-56
2022/07/19 11:11:14;;;;;;;9.50;6.90;;;36.70;99.90;;;;;;5092366;28;20746;-57
2022/07/19 11:13:43;;;;;;;10.07;6.80;;;36.40;99.90;;;;;;5089981;28;21181;-57
2022/07/19 11:16:09;;;;;;;9.38;7.85;;;35.80;99.90;;;;;;5092474;28;20793;-56
2022/07/19 11:18:35;;;;;;;8.23;4.97;;;35.90;99.90;;;;;;5087923;28;20481;-57
2022/07/19 11:21:02;;;;;;;8.50;3.27;;;35.70;99.90;;;;;;5089310;28;20374;-57
2022/07/19 11:23:33;;;;;;;7.45;2.58;;;35.80;99.90;;;;;;5088044;28;20382;-58
2022/07/19 11:26:05;;;;;;;9.13;3.60;;;35.70;99.90;;;;;;5088689;28;20370;-57
2022/07/19 11:28:31;;;;;;;7.22;3.75;;;35.50;99.90;;;;;;5084246;28;20467;-59
2022/07/19 11:30:57;;;;;;;7.50;3.80;;;35.80;99.90;;;;;;5091087;28;20787;-57
2022/07/19 11:33:23;;;;;;;7.18;3.30;;;35.80;99.90;;;;;;5091544;28;20378;-58
2022/07/19 11:36:00;;;;;;;9.02;3.00;;;35.80;99.90;;;;;;5091142;28;20378;-57
2022/07/19 11:38:39;;;;;;;7.72;3.20;;;36.00;99.90;;;;;;5086041;28;20401;-59
2022/07/19 11:41:08;;;;;;;7.60;3.10;;;36.20;99.90;;;;;;5084890;28;20465;-58
2022/07/19 11:43:35;;;;;;;7.10;2.80;;;36.40;99.90;;;;;;5082725;28;20380;-58
2022/07/19 11:46:01;;;;;;;9.38;2.90;;;36.20;99.90;;;;;;5082424;28;20375;-58
2022/07/19 11:48:30;;;;;;;8.10;2.60;;;36.90;99.90;;;;;;5083185;28;20525;-57
2022/07/19 11:51:07;;;;;;;6.90;2.80;;;35.50;99.90;;;;;;5085059;28;20485;-58
2022/07/19 11:53:35;;;;;;;8.65;3.80;;;35.30;99.90;;;;;;5087977;28;20418;-60
2022/07/19 11:56:02;;;;;;;10.75;3.60;;;35.50;99.90;;;;;;5085371;28;20859;-57
2022/07/19 11:58:28;;;;;;;9.40;3.10;;;35.70;99.90;;;;;;5082874;28;20379;-58
2022/07/19 12:01:05;;;;;;;9.47;3.00;;;36.00;99.90;;;;;;5090265;28;20374;-57
2022/07/19 12:03:31;;;;;;;8.68;3.05;;;36.00;99.90;;;;;;5079631;28;20481;-60
2022/07/19 12:06:06;;;;;;;8.32;3.00;;;36.20;99.90;;;;;;5090296;28;20768;-58
2022/07/19 12:08:43;;;;;;;9.10;3.08;;;36.20;99.90;;;;;;5090306;28;20400;-60
2022/07/19 12:11:21;;;;;;;8.50;3.03;;;36.20;99.90;;;;;;5091215;28;20431;-58
2022/07/19 12:13:47;;;;;;;8.10;2.90;;;36.30;99.90;;;;;;5090385;28;20386;-58
2022/07/19 12:16:13;;;;;;;10.60;3.90;;;36.10;99.90;;;;;;5091411;28;20392;-58
2022/07/19 12:18:54;;;;;;;7.20;3.40;;;36.20;99.90;;;;;;5090624;28;20378;-58
2022/07/19 12:21:22;;;;;;;12.40;3.92;;;36.50;99.90;;;;;;5091126;28;20378;-58
2022/07/19 12:24:14;;;;;;;8.40;3.50;;;36.60;99.90;;;;;;5090060;28;20766;-57
2022/07/19 12:26:54;;;;;;;9.50;3.20;;;36.40;99.90;;;;;;5090072;28;20409;-57
2022/07/19 12:29:26;;;;;;;7.57;3.13;;;36.50;99.90;;;;;;5090944;28;20851;-58
2022/07/19 12:31:55;;;;;;;8.35;3.08;;;36.60;99.90;;;;;;5089983;28;20386;-58
2022/07/19 12:34:21;;;;;;;8.30;3.33;;;36.70;99.90;;;;;;5090774;28;20855;-58
2022/07/19 12:36:47;;;;;;;8.50;3.70;;;36.80;99.90;;;;;;5090311;28;20376;-58
2022/07/19 12:39:29;;;;;;;9.82;3.53;;;36.80;99.90;;;;;;5090614;28;20467;-58
2022/07/19 12:42:00;;;;;;;8.80;3.40;;;36.60;99.90;;;;;;5090131;28;20382;-58
2022/07/19 12:44:27;;;;;;;8.18;3.15;;;36.50;99.90;;;;;;5090740;28;20493;-58
2022/07/19 12:46:53;;;;;;;7.70;3.28;;;36.20;99.90;;;;;;5090070;28;20370;-58
2022/07/19 12:49:19;;;;;;;11.18;3.50;;;36.20;99.90;;;;;;5090773;28;20382;-58